sensor_id;sensor_type;location;lat;lon;timestamp;temperature;humidity
5924;DHT22;2987;50.884;14.818;2023-04-29T00:02:21;11.30;99.90
5924;DHT22;2987;50.884;14.818;2023-04-29T00:04:47;11.30;99.90
5924;DHT22;2987;50.884;14.818;2023-04-29T00:07:13;11.30;99.90
5924;DHT22;2987;50.884;14.818;2023-04-29T00:09:41;11.30;99.90
5924;DHT22;2987;50.884;14.818;2023-04-29T00:12:07;11.30;99.90
5924;DHT22;2987;50.884;14.818;2023-04-29T00:14:32;11.20;99.90
5924;DHT22;2987;50.884;14.818;2023-04-29T00:16:58;11.20;99.90
5924;DHT22;2987;50.884;14.818;2023-04-29T00:19:25;11.30;99.90
5924;DHT22;2987;50.884;14.818;2023-04-29T00:21:51;11.20;99.90
5924;DHT22;2987;50.884;14.818;2023-04-29T00:24:19;11.50;99.90
5924;DHT22;2987;50.884;14.818;2023-04-29T00:26:45;11.20;99.90
5924;DHT22;2987;50.884;14.818;2023-04-29T00:29:11;11.30;99.90
5924;DHT22;2987;50.884;14.818;2023-04-29T00:31:37;11.00;99.90
5924;DHT22;2987;50.884;14.818;2023-04-29T00:34:03;11.10;99.90
5924;DHT22;2987;50.884;14.818;2023-04-29T00:36:29;11.20;99.90
5924;DHT22;2987;50.884;14.818;2023-04-29T00:38:56;11.30;99.90
5924;DHT22;2987;50.884;14.818;2023-04-29T00:41:23;11.20;99.90
5924;DHT22;2987;50.884;14.818;2023-04-29T00:43:49;11.20;99.90
5924;DHT22;2987;50.884;14.818;2023-04-29T00:48:41;11.00;99.90
5924;DHT22;2987;50.884;14.818;2023-04-29T00:51:07;11.10;99.90
5924;DHT22;2987;50.884;14.818;2023-04-29T00:53:33;11.00;99.90
5924;DHT22;2987;50.884;14.818;2023-04-29T00:56:01;11.10;99.90
5924;DHT22;2987;50.884;14.818;2023-04-29T00:58:29;11.10;99.90
5924;DHT22;2987;50.884;14.818;2023-04-29T01:00:59;11.10;99.90
5924;DHT22;2987;50.884;14.818;2023-04-29T01:03:28;11.10;99.90
5924;DHT22;2987;50.884;14.818;2023-04-29T01:06:05;11.00;99.90
5924;DHT22;2987;50.884;14.818;2023-04-29T01:08:50;11.00;99.90
5924;DHT22;2987;50.884;14.818;2023-04-29T01:11:22;11.00;99.90
5924;DHT22;2987;50.884;14.818;2023-04-29T01:13:52;11.00;99.90
5924;DHT22;2987;50.884;14.818;2023-04-29T01:16:24;11.00;99.90
5924;DHT22;2987;50.884;14.818;2023-04-29T01:18:54;10.90;99.90
5924;DHT22;2987;50.884;14.818;2023-04-29T01:21:26;10.90;99.90
5924;DHT22;2987;50.884;14.818;2023-04-29T01:23:52;10.80;99.90
5924;DHT22;2987;50.884;14.818;2023-04-29T01:26:22;10.80;99.90
5924;DHT22;2987;50.884;14.818;2023-04-29T01:29:26;10.80;99.90
5924;DHT22;2987;50.884;14.818;2023-04-29T01:32:04;10.80;99.90
5924;DHT22;2987;50.884;14.818;2023-04-29T01:34:41;10.80;99.90
5924;DHT22;2987;50.884;14.818;2023-04-29T01:37:16;11.10;99.90
5924;DHT22;2987;50.884;14.818;2023-04-29T01:40:04;10.90;99.90
5924;DHT22;2987;50.884;14.818;2023-04-29T01:42:50;10.80;99.90
5924;DHT22;2987;50.884;14.818;2023-04-29T01:45:21;10.80;99.90
5924;DHT22;2987;50.884;14.818;2023-04-29T01:47:49;10.80;99.90
5924;DHT22;2987;50.884;14.818;2023-04-29T01:50:17;10.80;99.90
5924;DHT22;2987;50.884;14.818;2023-04-29T01:52:43;10.90;99.90
5924;DHT22;2987;50.884;14.818;2023-04-29T01:55:09;10.90;99.90
5924;DHT22;2987;50.884;14.818;2023-04-29T01:57:44;10.90;99.90
5924;DHT22;2987;50.884;14.818;2023-04-29T02:00:22;11.00;99.90
5924;DHT22;2987;50.884;14.818;2023-04-29T02:02:51;11.00;99.90
5924;DHT22;2987;50.884;14.818;2023-04-29T02:05:26;11.00;99.90
5924;DHT22;2987;50.884;14.818;2023-04-29T02:07:57;11.10;99.90
5924;DHT22;2987;50.884;14.818;2023-04-29T02:10:23;11.10;99.90
5924;DHT22;2987;50.884;14.818;2023-04-29T02:12:56;11.10;99.90
5924;DHT22;2987;50.884;14.818;2023-04-29T02:15:26;10.90;99.90
5924;DHT22;2987;50.884;14.818;2023-04-29T02:17:52;11.10;99.90
5924;DHT22;2987;50.884;14.818;2023-04-29T02:20:20;11.10;99.90
5924;DHT22;2987;50.884;14.818;2023-04-29T02:22:46;11.00;99.90
5924;DHT22;2987;50.884;14.818;2023-04-29T02:25:12;10.90;99.90
5924;DHT22;2987;50.884;14.818;2023-04-29T02:27:38;10.90;99.90
5924;DHT22;2987;50.884;14.818;2023-04-29T02:30:05;10.90;99.90
5924;DHT22;2987;50.884;14.818;2023-04-29T02:32:32;10.90;99.90
5924;DHT22;2987;50.884;14.818;2023-04-29T02:34:58;11.00;99.90
5924;DHT22;2987;50.884;14.818;2023-04-29T02:37:24;11.00;99.90
5924;DHT22;2987;50.884;14.818;2023-04-29T02:39:50;11.00;99.90
5924;DHT22;2987;50.884;14.818;2023-04-29T02:42:16;11.00;99.90
5924;DHT22;2987;50.884;14.818;2023-04-29T02:44:42;11.00;99.90
5924;DHT22;2987;50.884;14.818;2023-04-29T02:47:08;10.90;99.90
5924;DHT22;2987;50.884;14.818;2023-04-29T02:49:34;10.90;99.90
5924;DHT22;2987;50.884;14.818;2023-04-29T02:52:00;10.90;99.90
5924;DHT22;2987;50.884;14.818;2023-04-29T02:54:26;11.00;99.90
5924;DHT22;2987;50.884;14.818;2023-04-29T02:56:52;11.00;99.90
5924;DHT22;2987;50.884;14.818;2023-04-29T02:59:18;11.00;99.90
5924;DHT22;2987;50.884;14.818;2023-04-29T03:01:44;11.00;99.90
5924;DHT22;2987;50.884;14.818;2023-04-29T03:04:11;11.00;99.90
5924;DHT22;2987;50.884;14.818;2023-04-29T03:09:03;10.90;99.90
5924;DHT22;2987;50.884;14.818;2023-04-29T03:11:29;10.90;99.90
5924;DHT22;2987;50.884;14.818;2023-04-29T03:13:55;10.90;99.90
5924;DHT22;2987;50.884;14.818;2023-04-29T03:16:22;11.00;99.90
5924;DHT22;2987;50.884;14.818;2023-04-29T03:18:48;10.90;99.90
5924;DHT22;2987;50.884;14.818;2023-04-29T03:21:14;10.90;99.90
5924;DHT22;2987;50.884;14.818;2023-04-29T03:23:40;10.90;99.90
5924;DHT22;2987;50.884;14.818;2023-04-29T03:26:09;10.90;99.90
5924;DHT22;2987;50.884;14.818;2023-04-29T03:28:36;10.90;99.90
5924;DHT22;2987;50.884;14.818;2023-04-29T03:31:02;10.80;99.90
5924;DHT22;2987;50.884;14.818;2023-04-29T03:33:28;10.80;99.90
5924;DHT22;2987;50.884;14.818;2023-04-29T03:35:55;10.70;99.90
5924;DHT22;2987;50.884;14.818;2023-04-29T03:38:34;10.70;99.90
5924;DHT22;2987;50.884;14.818;2023-04-29T03:41:01;10.70;99.90
5924;DHT22;2987;50.884;14.818;2023-04-29T03:43:28;10.70;99.90
5924;DHT22;2987;50.884;14.818;2023-04-29T03:45:54;10.70;99.90
5924;DHT22;2987;50.884;14.818;2023-04-29T03:48:22;10.70;99.90
5924;DHT22;2987;50.884;14.818;2023-04-29T03:50:48;10.70;99.90
5924;DHT22;2987;50.884;14.818;2023-04-29T03:53:16;10.70;99.90
5924;DHT22;2987;50.884;14.818;2023-04-29T03:55:42;10.60;99.90
5924;DHT22;2987;50.884;14.818;2023-04-29T03:58:09;10.70;99.90
5924;DHT22;2987;50.884;14.818;2023-04-29T04:00:35;10.60;99.90
5924;DHT22;2987;50.884;14.818;2023-04-29T04:03:05;10.70;99.90
5924;DHT22;2987;50.884;14.818;2023-04-29T04:05:32;10.70;99.90
5924;DHT22;2987;50.884;14.818;2023-04-29T04:08:04;10.60;99.90
5924;DHT22;2987;50.884;14.818;2023-04-29T04:10:46;10.50;99.90
5924;DHT22;2987;50.884;14.818;2023-04-29T04:13:22;10.50;99.90
5924;DHT22;2987;50.884;14.818;2023-04-29T04:15:49;10.50;99.90
5924;DHT22;2987;50.884;14.818;2023-04-29T04:18:17;10.50;99.90
5924;DHT22;2987;50.884;14.818;2023-04-29T04:20:43;10.40;99.90
5924;DHT22;2987;50.884;14.818;2023-04-29T04:23:09;10.40;99.90
5924;DHT22;2987;50.884;14.818;2023-04-29T04:25:35;10.40;99.90
5924;DHT22;2987;50.884;14.818;2023-04-29T04:30:56;10.30;99.90
5924;DHT22;2987;50.884;14.818;2023-04-29T04:33:22;10.30;99.90
5924;DHT22;2987;50.884;14.818;2023-04-29T04:35:48;10.30;99.90
5924;DHT22;2987;50.884;14.818;2023-04-29T04:38:14;10.30;99.90
5924;DHT22;2987;50.884;14.818;2023-04-29T04:40:40;10.30;99.90
5924;DHT22;2987;50.884;14.818;2023-04-29T04:43:21;10.40;99.90
5924;DHT22;2987;50.884;14.818;2023-04-29T04:45:48;10.30;99.90
5924;DHT22;2987;50.884;14.818;2023-04-29T04:48:14;10.40;99.90
5924;DHT22;2987;50.884;14.818;2023-04-29T04:50:47;10.40;99.90
5924;DHT22;2987;50.884;14.818;2023-04-29T04:53:16;10.40;99.90
5924;DHT22;2987;50.884;14.818;2023-04-29T04:55:47;10.40;99.90
5924;DHT22;2987;50.884;14.818;2023-04-29T04:58:15;10.40;99.90
5924;DHT22;2987;50.884;14.818;2023-04-29T05:00:44;10.50;99.90
5924;DHT22;2987;50.884;14.818;2023-04-29T05:03:11;10.50;99.90
5924;DHT22;2987;50.884;14.818;2023-04-29T05:05:37;10.50;99.90
5924;DHT22;2987;50.884;14.818;2023-04-29T05:08:03;10.40;99.90
5924;DHT22;2987;50.884;14.818;2023-04-29T05:10:36;10.50;99.90
5924;DHT22;2987;50.884;14.818;2023-04-29T05:13:04;10.40;99.90
5924;DHT22;2987;50.884;14.818;2023-04-29T05:15:31;10.60;99.90
5924;DHT22;2987;50.884;14.818;2023-04-29T05:17:59;10.40;99.90
5924;DHT22;2987;50.884;14.818;2023-04-29T05:20:25;10.30;99.90
5924;DHT22;2987;50.884;14.818;2023-04-29T05:22:51;10.30;99.90
5924;DHT22;2987;50.884;14.818;2023-04-29T05:25:17;10.30;99.90
5924;DHT22;2987;50.884;14.818;2023-04-29T05:27:43;10.40;99.90
5924;DHT22;2987;50.884;14.818;2023-04-29T05:30:14;10.50;99.90
5924;DHT22;2987;50.884;14.818;2023-04-29T05:32:41;10.90;99.90
5924;DHT22;2987;50.884;14.818;2023-04-29T05:35:11;11.30;99.90
5924;DHT22;2987;50.884;14.818;2023-04-29T05:37:37;11.70;99.90
5924;DHT22;2987;50.884;14.818;2023-04-29T05:40:14;11.80;99.90
5924;DHT22;2987;50.884;14.818;2023-04-29T05:42:40;12.00;99.90
5924;DHT22;2987;50.884;14.818;2023-04-29T05:45:07;12.00;99.90
5924;DHT22;2987;50.884;14.818;2023-04-29T05:47:34;12.00;99.90
5924;DHT22;2987;50.884;14.818;2023-04-29T05:50:00;12.00;99.90
5924;DHT22;2987;50.884;14.818;2023-04-29T05:52:26;11.90;99.90
5924;DHT22;2987;50.884;14.818;2023-04-29T05:54:52;12.00;99.90
5924;DHT22;2987;50.884;14.818;2023-04-29T05:57:18;12.00;99.90
5924;DHT22;2987;50.884;14.818;2023-04-29T05:59:44;11.90;99.90
5924;DHT22;2987;50.884;14.818;2023-04-29T06:02:10;11.90;99.90
5924;DHT22;2987;50.884;14.818;2023-04-29T06:04:39;11.90;99.90
5924;DHT22;2987;50.884;14.818;2023-04-29T06:07:26;11.90;99.90
5924;DHT22;2987;50.884;14.818;2023-04-29T06:09:58;11.90;99.90
5924;DHT22;2987;50.884;14.818;2023-04-29T06:12:23;11.90;99.90
5924;DHT22;2987;50.884;14.818;2023-04-29T06:14:49;11.90;99.90
5924;DHT22;2987;50.884;14.818;2023-04-29T06:17:15;11.90;99.90
5924;DHT22;2987;50.884;14.818;2023-04-29T06:19:41;12.00;99.90
5924;DHT22;2987;50.884;14.818;2023-04-29T06:22:09;12.10;99.90
5924;DHT22;2987;50.884;14.818;2023-04-29T06:24:36;12.10;99.90
5924;DHT22;2987;50.884;14.818;2023-04-29T06:27:03;12.10;99.90
5924;DHT22;2987;50.884;14.818;2023-04-29T06:29:30;12.00;99.90
5924;DHT22;2987;50.884;14.818;2023-04-29T06:31:56;12.00;99.90
5924;DHT22;2987;50.884;14.818;2023-04-29T06:34:22;11.90;99.90
5924;DHT22;2987;50.884;14.818;2023-04-29T06:37:08;11.90;99.90
5924;DHT22;2987;50.884;14.818;2023-04-29T06:39:55;11.90;99.90
5924;DHT22;2987;50.884;14.818;2023-04-29T06:42:40;11.90;99.90
5924;DHT22;2987;50.884;14.818;2023-04-29T06:45:23;11.90;99.90
5924;DHT22;2987;50.884;14.818;2023-04-29T06:47:58;11.80;99.90
5924;DHT22;2987;50.884;14.818;2023-04-29T06:50:27;11.80;99.90
5924;DHT22;2987;50.884;14.818;2023-04-29T06:52:54;11.80;99.90
5924;DHT22;2987;50.884;14.818;2023-04-29T06:55:19;11.70;99.90
5924;DHT22;2987;50.884;14.818;2023-04-29T06:57:47;11.70;99.90
5924;DHT22;2987;50.884;14.818;2023-04-29T07:00:13;11.70;99.90
5924;DHT22;2987;50.884;14.818;2023-04-29T07:02:40;11.70;99.90
5924;DHT22;2987;50.884;14.818;2023-04-29T07:05:08;11.80;99.90
5924;DHT22;2987;50.884;14.818;2023-04-29T07:07:34;11.90;99.90
5924;DHT22;2987;50.884;14.818;2023-04-29T07:10:00;11.90;99.90
5924;DHT22;2987;50.884;14.818;2023-04-29T07:12:26;12.00;99.90
5924;DHT22;2987;50.884;14.818;2023-04-29T07:14:53;12.10;99.90
5924;DHT22;2987;50.884;14.818;2023-04-29T07:17:19;12.10;99.90
5924;DHT22;2987;50.884;14.818;2023-04-29T07:19:46;12.20;99.90
5924;DHT22;2987;50.884;14.818;2023-04-29T07:22:12;12.10;99.90
5924;DHT22;2987;50.884;14.818;2023-04-29T07:24:38;12.10;99.90
5924;DHT22;2987;50.884;14.818;2023-04-29T07:27:04;12.10;99.90
5924;DHT22;2987;50.884;14.818;2023-04-29T07:29:30;12.20;99.90
5924;DHT22;2987;50.884;14.818;2023-04-29T07:31:57;12.10;99.90
5924;DHT22;2987;50.884;14.818;2023-04-29T07:34:23;12.10;99.90
5924;DHT22;2987;50.884;14.818;2023-04-29T07:36:49;12.10;99.90
5924;DHT22;2987;50.884;14.818;2023-04-29T07:39:15;12.10;99.90
5924;DHT22;2987;50.884;14.818;2023-04-29T07:41:44;12.10;99.90
5924;DHT22;2987;50.884;14.818;2023-04-29T07:44:10;12.10;99.90
5924;DHT22;2987;50.884;14.818;2023-04-29T07:46:36;12.20;99.90
5924;DHT22;2987;50.884;14.818;2023-04-29T07:49:02;12.10;99.90
5924;DHT22;2987;50.884;14.818;2023-04-29T07:51:30;12.10;99.90
5924;DHT22;2987;50.884;14.818;2023-04-29T07:53:57;12.10;99.90
5924;DHT22;2987;50.884;14.818;2023-04-29T07:56:23;12.10;99.90
5924;DHT22;2987;50.884;14.818;2023-04-29T07:58:49;12.10;99.90
5924;DHT22;2987;50.884;14.818;2023-04-29T08:01:15;12.10;99.90
5924;DHT22;2987;50.884;14.818;2023-04-29T08:03:42;12.10;99.90
5924;DHT22;2987;50.884;14.818;2023-04-29T08:06:11;12.10;99.90
5924;DHT22;2987;50.884;14.818;2023-04-29T08:08:37;12.10;99.90
5924;DHT22;2987;50.884;14.818;2023-04-29T08:11:03;12.20;99.90
5924;DHT22;2987;50.884;14.818;2023-04-29T08:13:30;12.30;99.90
5924;DHT22;2987;50.884;14.818;2023-04-29T08:15:56;12.50;99.90
5924;DHT22;2987;50.884;14.818;2023-04-29T08:18:22;12.70;99.90
5924;DHT22;2987;50.884;14.818;2023-04-29T08:20:48;12.80;99.90
5924;DHT22;2987;50.884;14.818;2023-04-29T08:23:14;13.00;99.90
5924;DHT22;2987;50.884;14.818;2023-04-29T08:25:41;13.30;99.90
5924;DHT22;2987;50.884;14.818;2023-04-29T08:28:08;13.60;99.90
5924;DHT22;2987;50.884;14.818;2023-04-29T08:30:39;13.70;99.90
5924;DHT22;2987;50.884;14.818;2023-04-29T08:33:05;13.70;99.90
5924;DHT22;2987;50.884;14.818;2023-04-29T08:35:31;13.60;99.90
5924;DHT22;2987;50.884;14.818;2023-04-29T08:37:57;13.50;99.90
5924;DHT22;2987;50.884;14.818;2023-04-29T08:40:23;13.50;99.90
5924;DHT22;2987;50.884;14.818;2023-04-29T08:42:49;13.30;99.90
5924;DHT22;2987;50.884;14.818;2023-04-29T08:45:19;13.20;99.90
5924;DHT22;2987;50.884;14.818;2023-04-29T08:47:48;13.10;99.90
5924;DHT22;2987;50.884;14.818;2023-04-29T08:50:16;13.10;99.90
5924;DHT22;2987;50.884;14.818;2023-04-29T08:52:42;13.00;99.90
5924;DHT22;2987;50.884;14.818;2023-04-29T08:55:08;13.00;99.90
5924;DHT22;2987;50.884;14.818;2023-04-29T08:57:35;13.00;99.90
5924;DHT22;2987;50.884;14.818;2023-04-29T09:00:09;13.00;99.90
5924;DHT22;2987;50.884;14.818;2023-04-29T09:02:42;13.00;99.90
5924;DHT22;2987;50.884;14.818;2023-04-29T09:05:10;13.10;99.90
5924;DHT22;2987;50.884;14.818;2023-04-29T09:07:38;13.10;99.90
5924;DHT22;2987;50.884;14.818;2023-04-29T09:10:04;13.10;99.90
5924;DHT22;2987;50.884;14.818;2023-04-29T09:12:30;13.10;99.90
5924;DHT22;2987;50.884;14.818;2023-04-29T09:14:56;13.00;99.90
5924;DHT22;2987;50.884;14.818;2023-04-29T09:17:44;13.00;99.90
5924;DHT22;2987;50.884;14.818;2023-04-29T09:20:26;13.00;99.90
5924;DHT22;2987;50.884;14.818;2023-04-29T09:22:56;13.00;99.90
5924;DHT22;2987;50.884;14.818;2023-04-29T09:25:23;13.00;99.90
5924;DHT22;2987;50.884;14.818;2023-04-29T09:27:49;13.00;99.90
5924;DHT22;2987;50.884;14.818;2023-04-29T09:30:16;13.10;99.90
5924;DHT22;2987;50.884;14.818;2023-04-29T09:32:42;13.10;99.90
5924;DHT22;2987;50.884;14.818;2023-04-29T09:35:26;13.30;99.90
5924;DHT22;2987;50.884;14.818;2023-04-29T09:38:05;13.50;99.90
5924;DHT22;2987;50.884;14.818;2023-04-29T09:40:34;13.70;99.90
5924;DHT22;2987;50.884;14.818;2023-04-29T09:43:01;13.90;99.90
5924;DHT22;2987;50.884;14.818;2023-04-29T09:45:35;14.00;99.90
5924;DHT22;2987;50.884;14.818;2023-04-29T09:48:02;14.10;99.90
5924;DHT22;2987;50.884;14.818;2023-04-29T09:50:30;14.20;99.90
5924;DHT22;2987;50.884;14.818;2023-04-29T09:52:57;14.30;99.90
5924;DHT22;2987;50.884;14.818;2023-04-29T09:55:24;14.30;99.90
5924;DHT22;2987;50.884;14.818;2023-04-29T09:57:52;14.20;99.90
5924;DHT22;2987;50.884;14.818;2023-04-29T10:00:18;14.20;99.90
5924;DHT22;2987;50.884;14.818;2023-04-29T10:02:45;14.10;99.90
5924;DHT22;2987;50.884;14.818;2023-04-29T10:05:14;14.10;99.90
5924;DHT22;2987;50.884;14.818;2023-04-29T10:07:41;14.00;99.90
5924;DHT22;2987;50.884;14.818;2023-04-29T10:10:09;13.90;99.90
5924;DHT22;2987;50.884;14.818;2023-04-29T10:12:36;13.80;99.90
5924;DHT22;2987;50.884;14.818;2023-04-29T10:15:22;13.70;99.90
5924;DHT22;2987;50.884;14.818;2023-04-29T10:18:02;13.70;99.90
5924;DHT22;2987;50.884;14.818;2023-04-29T10:20:36;13.80;99.90
5924;DHT22;2987;50.884;14.818;2023-04-29T10:23:03;13.80;99.90
5924;DHT22;2987;50.884;14.818;2023-04-29T10:25:30;13.80;99.90
5924;DHT22;2987;50.884;14.818;2023-04-29T10:27:57;13.90;99.90
5924;DHT22;2987;50.884;14.818;2023-04-29T10:30:25;13.90;99.90
5924;DHT22;2987;50.884;14.818;2023-04-29T10:32:52;13.90;99.90
5924;DHT22;2987;50.884;14.818;2023-04-29T10:35:20;13.90;99.90
5924;DHT22;2987;50.884;14.818;2023-04-29T10:37:49;14.10;99.90
5924;DHT22;2987;50.884;14.818;2023-04-29T10:45:33;14.60;99.90
5924;DHT22;2987;50.884;14.818;2023-04-29T10:48:10;15.00;99.90
5924;DHT22;2987;50.884;14.818;2023-04-29T10:51:01;15.50;99.90
5924;DHT22;2987;50.884;14.818;2023-04-29T10:53:28;15.80;99.90
5924;DHT22;2987;50.884;14.818;2023-04-29T10:55:58;16.10;99.90
5924;DHT22;2987;50.884;14.818;2023-04-29T10:58:43;16.20;99.90
5924;DHT22;2987;50.884;14.818;2023-04-29T11:01:10;16.30;99.90
5924;DHT22;2987;50.884;14.818;2023-04-29T11:03:55;16.30;99.90
5924;DHT22;2987;50.884;14.818;2023-04-29T11:06:39;16.30;99.90
5924;DHT22;2987;50.884;14.818;2023-04-29T11:09:19;16.00;99.90
5924;DHT22;2987;50.884;14.818;2023-04-29T11:11:57;15.90;99.90
5924;DHT22;2987;50.884;14.818;2023-04-29T11:14:25;15.80;99.90
5924;DHT22;2987;50.884;14.818;2023-04-29T11:16:54;15.80;99.90
5924;DHT22;2987;50.884;14.818;2023-04-29T11:19:24;15.70;99.90
5924;DHT22;2987;50.884;14.818;2023-04-29T11:22:03;15.80;99.90
5924;DHT22;2987;50.884;14.818;2023-04-29T11:24:34;15.90;99.90
5924;DHT22;2987;50.884;14.818;2023-04-29T11:27:02;16.00;99.90
5924;DHT22;2987;50.884;14.818;2023-04-29T11:29:28;16.30;99.90
5924;DHT22;2987;50.884;14.818;2023-04-29T11:32:02;16.40;99.90
5924;DHT22;2987;50.884;14.818;2023-04-29T11:34:28;16.40;99.90
5924;DHT22;2987;50.884;14.818;2023-04-29T11:36:54;16.30;99.90
5924;DHT22;2987;50.884;14.818;2023-04-29T11:39:20;16.20;99.90
5924;DHT22;2987;50.884;14.818;2023-04-29T11:41:46;16.20;99.90
5924;DHT22;2987;50.884;14.818;2023-04-29T11:44:12;16.30;99.90
5924;DHT22;2987;50.884;14.818;2023-04-29T11:46:37;16.50;99.90
5924;DHT22;2987;50.884;14.818;2023-04-29T11:49:03;16.50;99.90
5924;DHT22;2987;50.884;14.818;2023-04-29T11:51:29;16.70;99.90
5924;DHT22;2987;50.884;14.818;2023-04-29T11:53:57;16.80;99.90
5924;DHT22;2987;50.884;14.818;2023-04-29T11:56:23;17.00;99.90
5924;DHT22;2987;50.884;14.818;2023-04-29T11:58:55;17.00;99.90
5924;DHT22;2987;50.884;14.818;2023-04-29T12:01:21;17.00;99.90
5924;DHT22;2987;50.884;14.818;2023-04-29T12:03:49;16.90;99.90
5924;DHT22;2987;50.884;14.818;2023-04-29T12:06:15;16.80;99.90
5924;DHT22;2987;50.884;14.818;2023-04-29T12:08:41;16.50;99.90
5924;DHT22;2987;50.884;14.818;2023-04-29T12:11:07;16.30;99.90
5924;DHT22;2987;50.884;14.818;2023-04-29T12:13:33;16.20;99.90
5924;DHT22;2987;50.884;14.818;2023-04-29T12:16:02;16.10;99.90
5924;DHT22;2987;50.884;14.818;2023-04-29T12:18:28;16.20;99.90
5924;DHT22;2987;50.884;14.818;2023-04-29T12:20:55;16.20;99.90
5924;DHT22;2987;50.884;14.818;2023-04-29T12:23:23;16.20;99.90
5924;DHT22;2987;50.884;14.818;2023-04-29T12:25:51;16.30;99.90
5924;DHT22;2987;50.884;14.818;2023-04-29T12:28:18;16.30;99.90
5924;DHT22;2987;50.884;14.818;2023-04-29T12:30:49;16.40;99.90
5924;DHT22;2987;50.884;14.818;2023-04-29T12:33:25;16.50;99.90
5924;DHT22;2987;50.884;14.818;2023-04-29T12:35:54;16.60;99.90
5924;DHT22;2987;50.884;14.818;2023-04-29T12:38:29;16.60;99.90
5924;DHT22;2987;50.884;14.818;2023-04-29T12:40:59;16.50;99.90
5924;DHT22;2987;50.884;14.818;2023-04-29T12:43:28;16.50;99.90
5924;DHT22;2987;50.884;14.818;2023-04-29T12:46:03;16.40;99.90
5924;DHT22;2987;50.884;14.818;2023-04-29T12:48:31;16.30;99.90
5924;DHT22;2987;50.884;14.818;2023-04-29T12:50:57;16.30;99.90
5924;DHT22;2987;50.884;14.818;2023-04-29T12:53:25;16.50;99.90
5924;DHT22;2987;50.884;14.818;2023-04-29T12:55:52;16.50;99.90
5924;DHT22;2987;50.884;14.818;2023-04-29T12:58:18;16.60;99.90
5924;DHT22;2987;50.884;14.818;2023-04-29T13:00:44;16.80;99.90
5924;DHT22;2987;50.884;14.818;2023-04-29T13:03:10;17.00;99.90
5924;DHT22;2987;50.884;14.818;2023-04-29T13:05:36;17.10;99.90
5924;DHT22;2987;50.884;14.818;2023-04-29T13:08:02;17.00;99.90
5924;DHT22;2987;50.884;14.818;2023-04-29T13:10:31;17.10;99.90
5924;DHT22;2987;50.884;14.818;2023-04-29T13:12:58;16.90;99.90
5924;DHT22;2987;50.884;14.818;2023-04-29T13:15:24;16.90;99.90
5924;DHT22;2987;50.884;14.818;2023-04-29T13:17:51;17.00;99.90
5924;DHT22;2987;50.884;14.818;2023-04-29T13:20:17;17.10;99.90
5924;DHT22;2987;50.884;14.818;2023-04-29T13:22:43;17.20;99.90
5924;DHT22;2987;50.884;14.818;2023-04-29T13:25:10;17.50;99.90
5924;DHT22;2987;50.884;14.818;2023-04-29T13:27:37;17.70;99.90
5924;DHT22;2987;50.884;14.818;2023-04-29T13:30:05;18.10;99.90
5924;DHT22;2987;50.884;14.818;2023-04-29T13:32:31;18.30;99.90
5924;DHT22;2987;50.884;14.818;2023-04-29T13:34:57;18.10;99.90
5924;DHT22;2987;50.884;14.818;2023-04-29T13:39:49;17.10;99.90
5924;DHT22;2987;50.884;14.818;2023-04-29T13:42:15;16.80;99.90
5924;DHT22;2987;50.884;14.818;2023-04-29T13:44:41;16.60;99.90
5924;DHT22;2987;50.884;14.818;2023-04-29T13:47:11;16.50;99.90
5924;DHT22;2987;50.884;14.818;2023-04-29T13:49:39;16.30;99.90
5924;DHT22;2987;50.884;14.818;2023-04-29T13:52:06;16.10;99.90
5924;DHT22;2987;50.884;14.818;2023-04-29T13:54:33;15.90;99.90
5924;DHT22;2987;50.884;14.818;2023-04-29T13:56:59;15.70;99.90
5924;DHT22;2987;50.884;14.818;2023-04-29T13:59:29;15.50;99.90
5924;DHT22;2987;50.884;14.818;2023-04-29T14:01:56;15.30;99.90
5924;DHT22;2987;50.884;14.818;2023-04-29T14:04:23;15.20;99.90
5924;DHT22;2987;50.884;14.818;2023-04-29T14:06:49;15.10;99.90
5924;DHT22;2987;50.884;14.818;2023-04-29T14:09:15;15.00;99.90
5924;DHT22;2987;50.884;14.818;2023-04-29T14:11:41;14.90;99.90
5924;DHT22;2987;50.884;14.818;2023-04-29T14:14:07;14.90;99.90
5924;DHT22;2987;50.884;14.818;2023-04-29T14:16:33;14.80;99.90
5924;DHT22;2987;50.884;14.818;2023-04-29T14:18:59;14.80;99.90
5924;DHT22;2987;50.884;14.818;2023-04-29T14:23:50;14.60;99.90
5924;DHT22;2987;50.884;14.818;2023-04-29T14:26:16;14.50;99.90
5924;DHT22;2987;50.884;14.818;2023-04-29T14:28:42;14.40;99.90
5924;DHT22;2987;50.884;14.818;2023-04-29T14:31:08;14.40;99.90
5924;DHT22;2987;50.884;14.818;2023-04-29T14:33:35;14.40;99.90
5924;DHT22;2987;50.884;14.818;2023-04-29T14:36:01;14.20;99.90
5924;DHT22;2987;50.884;14.818;2023-04-29T14:38:27;14.20;99.90
5924;DHT22;2987;50.884;14.818;2023-04-29T14:40:53;14.00;99.90
5924;DHT22;2987;50.884;14.818;2023-04-29T14:43:19;14.10;99.90
5924;DHT22;2987;50.884;14.818;2023-04-29T14:45:45;14.00;99.90
5924;DHT22;2987;50.884;14.818;2023-04-29T14:48:11;13.90;99.90
5924;DHT22;2987;50.884;14.818;2023-04-29T14:50:37;14.00;99.90
5924;DHT22;2987;50.884;14.818;2023-04-29T14:53:03;14.00;99.90
5924;DHT22;2987;50.884;14.818;2023-04-29T14:55:29;13.90;99.90
5924;DHT22;2987;50.884;14.818;2023-04-29T14:57:55;14.00;99.90
5924;DHT22;2987;50.884;14.818;2023-04-29T15:00:21;13.90;99.90
5924;DHT22;2987;50.884;14.818;2023-04-29T15:02:47;14.00;99.90
5924;DHT22;2987;50.884;14.818;2023-04-29T15:05:15;13.90;99.90
5924;DHT22;2987;50.884;14.818;2023-04-29T15:07:41;13.90;99.90
5924;DHT22;2987;50.884;14.818;2023-04-29T15:10:07;13.90;99.90
5924;DHT22;2987;50.884;14.818;2023-04-29T15:12:34;13.80;99.90
5924;DHT22;2987;50.884;14.818;2023-04-29T15:15:00;13.80;99.90
5924;DHT22;2987;50.884;14.818;2023-04-29T15:17:25;13.70;99.90
5924;DHT22;2987;50.884;14.818;2023-04-29T15:19:51;13.60;99.90
5924;DHT22;2987;50.884;14.818;2023-04-29T15:22:17;13.50;99.90
5924;DHT22;2987;50.884;14.818;2023-04-29T15:24:43;13.40;99.90
5924;DHT22;2987;50.884;14.818;2023-04-29T15:27:09;13.30;99.90
5924;DHT22;2987;50.884;14.818;2023-04-29T15:32:02;13.10;99.90
5924;DHT22;2987;50.884;14.818;2023-04-29T15:34:28;13.00;99.90
5924;DHT22;2987;50.884;14.818;2023-04-29T15:36:54;12.80;99.90
5924;DHT22;2987;50.884;14.818;2023-04-29T15:39:21;12.70;99.90
5924;DHT22;2987;50.884;14.818;2023-04-29T15:41:47;12.60;99.90
5924;DHT22;2987;50.884;14.818;2023-04-29T15:44:13;12.50;99.90
5924;DHT22;2987;50.884;14.818;2023-04-29T15:46:39;12.30;99.90
5924;DHT22;2987;50.884;14.818;2023-04-29T15:49:05;12.20;99.90
5924;DHT22;2987;50.884;14.818;2023-04-29T15:51:31;12.10;99.90
5924;DHT22;2987;50.884;14.818;2023-04-29T15:53:57;12.20;99.90
5924;DHT22;2987;50.884;14.818;2023-04-29T15:56:23;12.10;99.90
5924;DHT22;2987;50.884;14.818;2023-04-29T15:58:50;12.10;99.90
5924;DHT22;2987;50.884;14.818;2023-04-29T16:01:17;12.00;99.90
5924;DHT22;2987;50.884;14.818;2023-04-29T16:03:43;12.00;99.90
5924;DHT22;2987;50.884;14.818;2023-04-29T16:06:09;12.00;99.90
5924;DHT22;2987;50.884;14.818;2023-04-29T16:08:35;11.90;99.90
5924;DHT22;2987;50.884;14.818;2023-04-29T16:11:01;11.80;99.90
5924;DHT22;2987;50.884;14.818;2023-04-29T16:13:27;11.70;99.90